Terminal Aerodrome Forecast
Issued by NWS

Home | Current Version | Previous Version | Text Only | Print | Product List | Glossary On
Versions: 1 2 3 4 5 6 7 8 9 10 11 12 13 14 15 16 17 18 19 20
000
FTUS42 TJSJ 222300
TAFJBQ
TAF
TJBQ 222334Z 2300/2324 07007KT P6SM VCTS SCT022CB BKN040
      TEMPO 2300/2304 6SM -SHRA BKN030
     FM230400 11006KT P6SM VCSH SCT025 SCT070
     FM230800 14008KT P6SM SCT022=

USA.gov is the U.S. government's official web portal to all federal, state and local government web resources and services.